Time;durP1;ratioP1;P1;durP2;ratioP2;P2;SDS_P1;SDS_P2;PMS_P1;PMS_P2;Temp;Humidity;BMP_temperature;BMP_pressure;BME280_temperature;BME280_humidity;BME280_pressure;Samples;Min_cycle;Max_cycle;Signal;HPM_P1;HPM_P2
2023/09/20 00:01:40;;;;;;;9.00;4.70;;;;;;;18.12;100.00;95403.09;5038829;28;20230;-77
2023/09/20 00:04:07;;;;;;;9.00;5.07;;;;;;;18.22;100.00;95400.66;5058592;28;20225;-78
2023/09/20 00:06:32;;;;;;;7.80;5.33;;;;;;;18.37;100.00;95403.56;5051599;28;20248;-77
2023/09/20 00:09:00;;;;;;;7.57;5.07;;;;;;;18.28;100.00;95405.00;5065305;28;20262;-77
2023/09/20 00:11:26;;;;;;;8.30;5.20;;;;;;;18.21;100.00;95401.69;5059097;28;20708;-79
2023/09/20 00:13:52;;;;;;;8.37;5.63;;;;;;;18.05;100.00;95394.47;5045876;28;20255;-77
2023/09/20 00:16:18;;;;;;;7.80;5.73;;;;;;;17.69;100.00;95403.50;5056853;28;20216;-79
2023/09/20 00:18:44;;;;;;;9.20;6.17;;;;;;;17.78;100.00;95401.28;5087364;28;20221;-78
2023/09/20 00:21:10;;;;;;;13.10;6.60;;;;;;;17.83;100.00;95402.22;5089937;28;20316;-78
2023/09/20 00:23:35;;;;;;;9.93;6.17;;;;;;;17.87;100.00;95407.84;5056789;28;20240;-78
2023/09/20 00:26:01;;;;;;;10.57;6.17;;;;;;;17.98;100.00;95407.03;5053917;28;20251;-79
2023/09/20 00:28:27;;;;;;;8.27;5.50;;;;;;;17.95;100.00;95410.13;5054174;28;20289;-78
2023/09/20 00:30:53;;;;;;;9.33;5.77;;;;;;;17.86;100.00;95412.34;5071293;28;20232;-78
2023/09/20 00:33:18;;;;;;;9.90;6.37;;;;;;;17.94;100.00;95414.63;5088463;28;20266;-78
2023/09/20 00:35:44;;;;;;;11.23;5.90;;;;;;;17.91;100.00;95412.44;5064130;28;20643;-79
2023/09/20 00:38:09;;;;;;;10.50;6.10;;;;;;;17.97;100.00;95416.00;5058250;28;20257;-78
2023/09/20 00:40:35;;;;;;;11.17;6.20;;;;;;;17.99;100.00;95411.28;5042566;28;20247;-79
2023/09/20 00:43:04;;;;;;;11.03;6.70;;;;;;;17.83;100.00;95414.66;5047213;28;20229;-79
2023/09/20 00:45:29;;;;;;;10.70;6.43;;;;;;;17.78;100.00;95404.75;5041376;28;20314;-78
2023/09/20 00:47:56;;;;;;;13.80;6.87;;;;;;;17.72;100.00;95405.66;5041293;28;20387;-78
2023/09/20 00:50:22;;;;;;;14.40;7.07;;;;;;;17.73;100.00;95402.00;5041559;28;20298;-80
2023/09/20 00:52:51;;;;;;;10.50;6.60;;;;;;;17.68;100.00;95407.16;5046179;28;20217;-78
2023/09/20 00:55:20;;;;;;;13.00;7.10;;;;;;;17.50;100.00;95416.00;5051633;28;20773;-78
2023/09/20 00:57:47;;;;;;;13.50;6.87;;;;;;;17.55;100.00;95406.59;5073361;28;20229;-78
2023/09/20 01:00:27;;;;;;;15.53;7.07;;;;;;;17.66;100.00;95401.31;5037273;28;20229;-78
2023/09/20 01:02:57;;;;;;;12.43;6.73;;;;;;;17.63;100.00;95400.94;5071569;28;20312;-78
2023/09/20 01:05:23;;;;;;;10.90;6.70;;;;;;;17.71;100.00;95406.72;5069040;28;20227;-78
2023/09/20 01:07:54;;;;;;;15.70;7.40;;;;;;;17.54;100.00;95407.63;5084327;28;20611;-78
2023/09/20 01:10:23;;;;;;;15.10;7.20;;;;;;;17.39;100.00;95406.22;5072429;28;20245;-78
2023/09/20 01:12:51;;;;;;;10.90;7.00;;;;;;;17.42;100.00;95400.47;5040015;28;20225;-78
2023/09/20 01:15:16;;;;;;;12.60;6.93;;;;;;;17.41;100.00;95404.16;5070885;28;20229;-78
2023/09/20 01:17:48;;;;;;;15.87;7.67;;;;;;;17.37;100.00;95405.66;5047172;28;20790;-79
2023/09/20 01:20:14;;;;;;;12.73;7.23;;;;;;;17.55;100.00;95401.31;5039708;28;20274;-78
2023/09/20 01:22:40;;;;;;;14.00;7.30;;;;;;;17.55;100.00;95398.66;5042508;28;20256;-78
2023/09/20 01:25:07;;;;;;;13.23;7.10;;;;;;;17.38;100.00;95396.69;5067414;28;20243;-79
2023/09/20 01:27:35;;;;;;;10.80;7.00;;;;;;;17.20;100.00;95388.03;5076450;28;20233;-79
2023/09/20 01:30:02;;;;;;;14.10;7.20;;;;;;;16.89;100.00;95394.41;5025749;28;20253;-79
2023/09/20 01:32:29;;;;;;;12.53;7.23;;;;;;;17.33;100.00;95393.91;5073882;28;20235;-79
2023/09/20 01:34:55;;;;;;;13.93;7.40;;;;;;;17.35;100.00;95396.31;5069696;28;20236;-79
2023/09/20 01:37:21;;;;;;;12.57;7.23;;;;;;;17.06;100.00;95399.84;5064804;28;20303;-79
2023/09/20 01:39:46;;;;;;;12.13;7.10;;;;;;;17.16;100.00;95403.56;5042677;28;20274;-79
2023/09/20 01:42:12;;;;;;;11.47;7.40;;;;;;;17.18;100.00;95405.97;5039406;28;20251;-79
2023/09/20 01:44:38;;;;;;;14.30;7.57;;;;;;;17.18;100.00;95409.41;5072173;28;20230;-78
2023/09/20 01:47:04;;;;;;;14.93;7.23;;;;;;;17.13;100.00;95413.78;5055447;28;20231;-79
2023/09/20 01:49:32;;;;;;;11.93;6.97;;;;;;;17.14;100.00;95410.91;5056540;28;20229;-78
2023/09/20 01:51:58;;;;;;;12.93;6.63;;;;;;;17.14;100.00;95403.00;5057837;28;20251;-78
2023/09/20 01:54:26;;;;;;;13.90;6.73;;;;;;;17.13;100.00;95401.38;5073654;28;20286;-79
2023/09/20 01:56:52;;;;;;;15.13;6.50;;;;;;;17.05;100.00;95396.41;5068302;28;20235;-79
2023/09/20 01:59:19;;;;;;;10.87;6.87;;;;;;;17.03;100.00;95397.69;5040720;28;20316;-79
2023/09/20 02:01:45;;;;;;;12.50;6.40;;;;;;;16.99;100.00;95399.97;5059489;28;20235;-79
2023/09/20 02:04:10;;;;;;;12.17;6.60;;;;;;;17.01;100.00;95405.81;5065309;28;20233;-79
2023/09/20 02:06:36;;;;;;;13.77;6.80;;;;;;;17.07;100.00;95396.19;5059171;28;20228;-79
2023/09/20 02:09:04;;;;;;;10.97;6.57;;;;;;;17.00;100.00;95403.41;5042671;28;20336;-79
2023/09/20 02:11:29;;;;;;;13.40;7.10;;;;;;;16.93;100.00;95398.25;5070379;28;20229;-78
2023/09/20 02:13:55;;;;;;;15.67;7.23;;;;;;;16.94;100.00;95396.38;5043811;28;20398;-78
2023/09/20 02:16:20;;;;;;;12.23;7.47;;;;;;;17.01;100.00;95389.16;5048410;28;20220;-78
2023/09/20 02:18:48;;;;;;;12.93;7.53;;;;;;;17.02;100.00;95393.41;5041191;28;20224;-78
2023/09/20 02:21:14;;;;;;;14.87;7.93;;;;;;;17.04;100.00;95389.50;5065189;28;20258;-79
2023/09/20 02:23:39;;;;;;;16.03;8.20;;;;;;;17.19;100.00;95389.88;5055657;28;20227;-78
2023/09/20 02:26:05;;;;;;;16.40;8.20;;;;;;;17.12;100.00;95397.13;5068846;28;20232;-78
2023/09/20 02:28:31;;;;;;;13.30;8.03;;;;;;;17.13;100.00;95401.38;5069280;28;20598;-79
2023/09/20 02:30:57;;;;;;;12.77;8.47;;;;;;;16.96;100.00;95408.34;5053827;28;20224;-78
2023/09/20 02:33:22;;;;;;;16.37;8.77;;;;;;;17.05;100.00;95406.97;5031903;28;20665;-78
2023/09/20 02:35:48;;;;;;;16.17;9.50;;;;;;;17.19;100.00;95405.75;5075863;28;20288;-79
2023/09/20 02:38:14;;;;;;;17.40;10.07;;;;;;;17.30;100.00;95410.25;5074829;28;20240;-78
2023/09/20 02:40:39;;;;;;;20.13;11.50;;;;;;;17.38;100.00;95407.28;5073918;28;20315;-79
2023/09/20 02:43:08;;;;;;;20.60;12.23;;;;;;;17.40;100.00;95410.50;5051282;28;20234;-79
2023/09/20 02:45:36;;;;;;;26.50;12.00;;;;;;;17.40;100.00;95405.19;5067504;28;20241;-78
2023/09/20 02:48:06;;;;;;;26.63;13.57;;;;;;;17.41;100.00;95421.88;5051172;28;20219;-79
2023/09/20 02:50:32;;;;;;;26.40;14.93;;;;;;;17.48;100.00;95410.13;5059410;28;20703;-79
2023/09/20 02:52:58;;;;;;;28.40;14.87;;;;;;;17.34;100.00;95416.69;5053536;28;20216;-79
2023/09/20 02:55:23;;;;;;;29.73;15.00;;;;;;;17.34;100.00;95419.31;5055442;28;20232;-79
2023/09/20 02:57:50;;;;;;;27.73;15.50;;;;;;;17.26;100.00;95409.09;5049396;28;20225;-79
2023/09/20 03:00:16;;;;;;;27.33;14.93;;;;;;;17.33;100.00;95415.09;5053103;28;20789;-79
2023/09/20 03:02:43;;;;;;;28.33;15.47;;;;;;;17.37;100.00;95418.06;5063670;28;20286;-79
2023/09/20 03:05:08;;;;;;;27.83;15.23;;;;;;;17.31;100.00;95421.66;5048721;28;20248;-79
2023/09/20 03:07:34;;;;;;;29.23;15.57;;;;;;;17.04;100.00;95413.31;5068060;28;20239;-79
2023/09/20 03:09:59;;;;;;;29.10;15.10;;;;;;;16.74;100.00;95410.69;5036633;28;20232;-79
2023/09/20 03:12:26;;;;;;;30.73;15.93;;;;;;;16.64;100.00;95405.16;5072911;28;20228;-79
2023/09/20 03:14:53;;;;;;;27.67;15.60;;;;;;;16.75;100.00;95409.69;5039481;28;20761;-79
2023/09/20 03:17:19;;;;;;;30.30;15.27;;;;;;;16.85;100.00;95406.47;5067936;28;20278;-79
2023/09/20 03:19:45;;;;;;;28.63;15.43;;;;;;;16.82;100.00;95418.31;5053828;28;20955;-79
2023/09/20 03:22:13;;;;;;;27.43;15.37;;;;;;;16.75;100.00;95416.78;5038387;28;20225;-79
2023/09/20 03:24:40;;;;;;;28.57;15.13;;;;;;;16.80;100.00;95411.63;5065618;28;20314;-79
2023/09/20 03:27:05;;;;;;;30.10;15.10;;;;;;;16.75;100.00;95411.50;5067706;28;20660;-78
2023/09/20 03:29:31;;;;;;;29.47;15.47;;;;;;;16.85;100.00;95409.13;5053565;28;20234;-79
2023/09/20 03:31:58;;;;;;;30.77;15.70;;;;;;;17.02;100.00;95415.38;5047365;28;20244;-79
2023/09/20 03:34:23;;;;;;;31.03;14.87;;;;;;;17.15;100.00;95415.16;5052075;28;20228;-79
2023/09/20 03:36:50;;;;;;;28.30;15.03;;;;;;;17.31;100.00;95422.44;5067338;28;20224;-78
2023/09/20 03:39:17;;;;;;;27.60;15.40;;;;;;;17.28;100.00;95414.97;5073732;28;20311;-79
2023/09/20 03:41:42;;;;;;;27.37;15.20;;;;;;;17.36;100.00;95419.13;5069889;28;20233;-77
2023/09/20 03:44:08;;;;;;;32.53;15.30;;;;;;;17.36;100.00;95403.25;5055829;28;20242;-78
2023/09/20 03:46:35;;;;;;;29.90;15.47;;;;;;;17.21;100.00;95406.34;5066536;28;20240;-79
2023/09/20 03:49:01;;;;;;;25.87;15.03;;;;;;;17.36;100.00;95398.72;5039765;28;20228;-79
2023/09/20 03:51:26;;;;;;;29.73;15.27;;;;;;;17.44;100.00;95411.63;5052045;28;20656;-78
2023/09/20 03:53:52;;;;;;;26.00;14.97;;;;;;;17.60;100.00;95414.66;5048089;28;20236;-80
2023/09/20 03:56:17;;;;;;;27.53;15.40;;;;;;;17.63;100.00;95416.84;5068006;28;20258;-80
2023/09/20 03:58:43;;;;;;;29.43;15.27;;;;;;;17.60;100.00;95412.03;5072505;28;20228;-79
2023/09/20 04:01:08;;;;;;;26.43;14.40;;;;;;;17.50;100.00;95413.34;5045532;28;20225;-80
2023/09/20 04:03:39;;;;;;;29.77;15.37;;;;;;;17.35;100.00;95417.50;5046216;28;20746;-80
2023/09/20 04:06:04;;;;;;;27.73;14.83;;;;;;;17.25;100.00;95415.41;5045133;28;20268;-80
2023/09/20 04:08:30;;;;;;;27.80;15.27;;;;;;;17.27;100.00;95409.88;5051884;28;20267;-79
2023/09/20 04:10:58;;;;;;;29.30;14.93;;;;;;;17.26;100.00;95405.63;5032814;28;20236;-80
2023/09/20 04:13:24;;;;;;;27.00;15.17;;;;;;;17.27;100.00;95409.88;5067324;28;20286;-79
2023/09/20 04:15:50;;;;;;;28.50;14.93;;;;;;;17.40;100.00;95407.84;5045746;28;20233;-79
2023/09/20 04:18:15;;;;;;;29.27;14.27;;;;;;;17.38;100.00;95414.41;5052858;28;20212;-79
2023/09/20 04:20:47;;;;;;;29.53;15.30;;;;;;;17.42;100.00;95413.72;5067432;28;20920;-80
2023/09/20 04:23:13;;;;;;;27.40;14.57;;;;;;;17.42;100.00;95408.41;5063538;28;20228;-80
2023/09/20 04:25:39;;;;;;;29.10;15.00;;;;;;;17.38;100.00;95409.91;5036628;28;20327;-79
2023/09/20 04:28:04;;;;;;;34.43;15.80;;;;;;;17.30;100.00;95404.94;5066782;28;20229;-79
2023/09/20 04:30:30;;;;;;;29.63;16.07;;;;;;;17.38;100.00;95417.84;5036330;28;20228;-80
2023/09/20 04:32:56;;;;;;;28.80;15.07;;;;;;;17.34;100.00;95411.38;5058268;28;20256;-79
2023/09/20 04:35:22;;;;;;;26.87;15.37;;;;;;;17.42;100.00;95411.06;5062151;28;20255;-79
2023/09/20 04:37:47;;;;;;;32.57;15.27;;;;;;;17.51;100.00;95414.16;5066994;28;20255;-79
2023/09/20 04:40:13;;;;;;;28.37;15.50;;;;;;;17.49;100.00;95418.88;5030742;28;20233;-79
2023/09/20 04:42:39;;;;;;;34.00;15.53;;;;;;;17.34;100.00;95423.81;5069710;28;20240;-79
2023/09/20 04:45:12;;;;;;;31.07;15.60;;;;;;;17.40;100.00;95431.66;5048483;28;20262;-80
2023/09/20 04:47:37;;;;;;;36.93;16.47;;;;;;;17.40;100.00;95429.00;5039717;28;20371;-81
2023/09/20 04:50:03;;;;;;;30.33;16.87;;;;;;;17.53;100.00;95422.69;5067484;28;20228;-80
2023/09/20 04:52:30;;;;;;;32.40;17.47;;;;;;;17.62;100.00;95425.81;5065719;28;20252;-80
2023/09/20 04:54:55;;;;;;;31.57;16.67;;;;;;;17.58;100.00;95422.81;5045060;28;20227;-80
2023/09/20 04:57:21;;;;;;;34.10;17.67;;;;;;;17.58;100.00;95427.34;5068924;28;20225;-80
2023/09/20 04:59:46;;;;;;;31.13;17.43;;;;;;;17.55;100.00;95423.31;5077167;28;20236;-79
2023/09/20 05:02:14;;;;;;;34.67;18.37;;;;;;;17.58;100.00;95428.13;5054472;28;20267;-79
2023/09/20 05:04:40;;;;;;;34.80;18.90;;;;;;;17.60;100.00;95435.84;5044836;28;20232;-80
2023/09/20 05:07:05;;;;;;;28.73;17.30;;;;;;;17.57;100.00;95433.66;5029265;28;20575;-79
2023/09/20 05:09:34;;;;;;;30.50;17.37;;;;;;;17.61;100.00;95440.09;5058751;28;20243;-79
2023/09/20 05:12:02;;;;;;;31.63;17.47;;;;;;;17.46;100.00;95440.50;5066821;28;20232;-79
2023/09/20 05:14:28;;;;;;;27.87;17.33;;;;;;;17.43;100.00;95433.81;5049791;28;20243;-79
2023/09/20 05:16:53;;;;;;;28.70;17.80;;;;;;;17.34;100.00;95443.16;5038077;28;20225;-79
2023/09/20 05:19:19;;;;;;;28.17;16.80;;;;;;;17.38;100.00;95443.50;5054371;28;20229;-79
2023/09/20 05:21:45;;;;;;;29.77;16.47;;;;;;;17.41;100.00;95449.13;5055605;28;20310;-79
2023/09/20 05:24:10;;;;;;;26.30;14.63;;;;;;;17.19;100.00;95444.63;5073980;28;20701;-78
2023/09/20 05:26:36;;;;;;;23.13;13.30;;;;;;;17.03;100.00;95453.22;5064202;28;20304;-82
2023/09/20 05:29:03;;;;;;;20.17;12.27;;;;;;;17.06;100.00;95452.75;5048874;28;20237;-85
2023/09/20 05:31:29;;;;;;;26.47;12.43;;;;;;;17.05;100.00;95454.59;5041941;28;20228;-85
2023/09/20 05:33:55;;;;;;;21.97;12.37;;;;;;;17.02;100.00;95452.41;5068305;28;20628;-86
2023/09/20 05:36:24;;;;;;;22.10;12.73;;;;;;;16.99;100.00;95459.97;5061857;28;20271;-88
2023/09/20 05:38:51;;;;;;;24.70;12.63;;;;;;;17.11;100.00;95463.47;5072240;28;20350;-87
2023/09/20 05:41:18;;;;;;;23.03;13.40;;;;;;;17.08;100.00;95463.91;5067135;28;20231;-88
2023/09/20 05:43:44;;;;;;;21.47;11.80;;;;;;;17.01;100.00;95469.31;5066391;28;20275;-86
2023/09/20 05:46:11;;;;;;;18.87;11.00;;;;;;;16.93;100.00;95469.63;5072220;28;20258;-86
2023/09/20 05:48:39;;;;;;;23.00;10.80;;;;;;;16.93;100.00;95469.63;5071699;28;20839;-87
2023/09/20 05:51:05;;;;;;;22.00;11.03;;;;;;;16.95;100.00;95474.69;5073503;28;20334;-86
2023/09/20 05:53:30;;;;;;;20.63;12.00;;;;;;;16.86;100.00;95476.81;5040156;28;20308;-87
2023/09/20 05:55:56;;;;;;;23.43;12.23;;;;;;;16.90;100.00;95483.31;5045485;28;20277;-85
2023/09/20 05:58:21;;;;;;;24.80;12.20;;;;;;;16.95;100.00;95482.63;5073951;28;20232;-87
2023/09/20 06:00:48;;;;;;;21.10;11.50;;;;;;;16.87;100.00;95485.56;5065692;28;20690;-87
2023/09/20 06:03:13;;;;;;;24.37;11.23;;;;;;;16.99;100.00;95489.88;5059606;28;20320;-86
2023/09/20 06:05:39;;;;;;;23.10;12.07;;;;;;;16.99;100.00;95484.59;5058861;28;20661;-87
2023/09/20 06:08:06;;;;;;;23.37;11.50;;;;;;;16.97;100.00;95489.31;5045345;28;20233;-87
2023/09/20 06:10:31;;;;;;;26.47;10.90;;;;;;;17.06;100.00;95480.00;5057478;28;20645;-85
2023/09/20 06:12:57;;;;;;;25.80;11.60;;;;;;;17.25;100.00;95488.69;5058522;28;20781;-86
2023/09/20 06:15:22;;;;;;;26.30;12.73;;;;;;;17.14;100.00;95479.69;5071128;28;20232;-85
2023/09/20 06:17:48;;;;;;;25.57;12.57;;;;;;;17.02;100.00;95483.34;5058025;28;20239;-87
2023/09/20 06:20:19;;;;;;;30.53;13.23;;;;;;;17.16;100.00;95487.41;5077351;28;20315;-86
2023/09/20 06:22:56;;;;;;;31.63;13.93;;;;;;;17.18;100.00;95494.06;5060048;28;20228;-87
2023/09/20 06:25:22;;;;;;;31.37;14.03;;;;;;;17.32;100.00;95492.84;5061176;28;20239;-86
2023/09/20 06:27:50;;;;;;;25.60;14.23;;;;;;;17.37;100.00;95486.88;5039453;28;20240;-87
2023/09/20 06:30:20;;;;;;;32.57;14.40;;;;;;;17.50;100.00;95497.25;5055261;28;20235;-79
2023/09/20 06:32:46;;;;;;;30.00;14.80;;;;;;;17.40;100.00;95497.00;5074051;28;20228;-79
2023/09/20 06:35:14;;;;;;;30.17;14.83;;;;;;;17.34;100.00;95498.72;5076016;27;20233;-80
2023/09/20 06:37:40;;;;;;;32.70;16.47;;;;;;;17.19;100.00;95493.06;5053149;28;20293;-79
2023/09/20 06:40:22;;;;;;;37.60;17.40;;;;;;;17.23;100.00;95496.84;5043568;28;20318;-79
2023/09/20 06:42:51;;;;;;;32.47;16.27;;;;;;;17.37;100.00;95497.47;5061637;28;20211;-79
2023/09/20 06:45:20;;;;;;;34.93;19.33;;;;;;;17.47;100.00;95495.88;5051109;28;20221;-79
2023/09/20 06:47:46;;;;;;;38.77;20.80;;;;;;;17.43;100.00;95488.63;5036924;28;20221;-79
2023/09/20 06:50:15;;;;;;;40.83;21.40;;;;;;;17.51;100.00;95496.22;5056344;28;20234;-79
2023/09/20 06:52:44;;;;;;;37.33;20.60;;;;;;;17.38;100.00;95505.19;5054362;28;20256;-80
2023/09/20 06:55:17;;;;;;;35.10;20.37;;;;;;;17.56;100.00;95504.31;5067093;28;20311;-79
2023/09/20 06:57:43;;;;;;;37.00;21.33;;;;;;;17.48;100.00;95494.03;5055280;28;20335;-79
2023/09/20 07:00:25;;;;;;;40.77;21.37;;;;;;;17.61;100.00;95503.63;5034113;28;20888;-79
2023/09/20 07:02:55;;;;;;;39.87;21.10;;;;;;;17.52;100.00;95507.66;5055004;28;20228;-78
2023/09/20 07:05:22;;;;;;;37.60;20.53;;;;;;;17.47;100.00;95517.06;5038962;28;20617;-79
2023/09/20 07:07:48;;;;;;;37.03;20.70;;;;;;;17.57;100.00;95519.16;5058440;28;20717;-79
2023/09/20 07:10:15;;;;;;;38.23;20.57;;;;;;;17.63;100.00;95520.09;5069850;28;20237;-79
2023/09/20 07:12:42;;;;;;;39.57;21.60;;;;;;;17.69;100.00;95513.88;5043297;28;20506;-79
2023/09/20 07:15:08;;;;;;;39.20;21.20;;;;;;;17.72;100.00;95516.88;5063585;28;20229;-79
2023/09/20 07:17:35;;;;;;;42.80;23.43;;;;;;;17.75;100.00;95515.59;5052995;28;20297;-79
2023/09/20 07:20:07;;;;;;;40.67;21.20;;;;;;;17.84;100.00;95514.25;5052199;28;20298;-79
2023/09/20 07:22:34;;;;;;;37.23;21.33;;;;;;;17.91;100.00;95517.59;5040246;28;20240;-79
2023/09/20 07:25:04;;;;;;;39.43;20.83;;;;;;;17.93;100.00;95515.53;5083177;28;20286;-79
2023/09/20 07:27:32;;;;;;;36.23;19.63;;;;;;;18.00;100.00;95522.31;5067385;28;20248;-79
2023/09/20 07:29:59;;;;;;;35.80;20.63;;;;;;;17.93;100.00;95531.41;5057260;28;20247;-80
2023/09/20 07:32:25;;;;;;;39.73;20.40;;;;;;;17.90;100.00;95526.56;5080507;28;20726;-79
2023/09/20 07:34:57;;;;;;;39.60;21.10;;;;;;;17.98;100.00;95529.66;5065203;28;20256;-79
2023/09/20 07:37:25;;;;;;;35.20;21.10;;;;;;;17.99;100.00;95526.00;5053011;28;20220;-79
2023/09/20 07:39:51;;;;;;;37.10;21.37;;;;;;;18.04;100.00;95528.75;5035284;28;20250;-78
2023/09/20 07:42:16;;;;;;;36.67;21.20;;;;;;;17.96;100.00;95526.44;5061094;28;20685;-78
2023/09/20 07:44:43;;;;;;;42.33;21.27;;;;;;;18.05;100.00;95526.94;5037449;28;20244;-79
2023/09/20 07:47:11;;;;;;;37.37;21.57;;;;;;;18.13;100.00;95522.06;5066022;28;20319;-78
2023/09/20 07:49:36;;;;;;;37.43;21.47;;;;;;;18.17;100.00;95530.38;5068008;28;20729;-78
2023/09/20 07:52:04;;;;;;;40.30;21.37;;;;;;;18.07;100.00;95532.78;5062231;28;20289;-78
2023/09/20 07:54:29;;;;;;;42.07;21.17;;;;;;;18.19;100.00;95525.66;5065835;28;20302;-78
2023/09/20 07:56:55;;;;;;;39.60;21.47;;;;;;;18.26;100.00;95526.34;5068435;28;20622;-79
2023/09/20 07:59:26;;;;;;;42.90;23.13;;;;;;;18.30;100.00;95531.97;5054694;28;20236;-79
2023/09/20 08:01:53;;;;;;;48.83;22.73;;;;;;;18.36;100.00;95525.75;5067565;28;20269;-79
2023/09/20 08:04:19;;;;;;;45.27;23.10;;;;;;;18.37;100.00;95527.34;5086253;28;20258;-79
2023/09/20 08:06:44;;;;;;;44.10;23.33;;;;;;;18.36;100.00;95520.44;5053467;28;20227;-79
2023/09/20 08:09:10;;;;;;;40.07;23.20;;;;;;;18.49;100.00;95520.22;5056327;28;20239;-78
2023/09/20 08:11:37;;;;;;;43.40;23.57;;;;;;;18.52;100.00;95523.22;5079051;28;20699;-79
2023/09/20 08:14:03;;;;;;;42.70;23.33;;;;;;;18.57;100.00;95523.31;5046981;28;20662;-79
2023/09/20 08:16:31;;;;;;;46.53;24.30;;;;;;;18.63;100.00;95519.72;5054430;28;20619;-78
2023/09/20 08:21:42;;;;;;;40.67;23.03;;;;;;;18.83;100.00;95517.50;5064905;28;20245;-80
2023/09/20 08:59:52;;;;;;;33.00;18.57;;;;;;;19.76;100.00;95493.13;5056557;28;20401;-76
2023/09/20 09:02:17;;;;;;;36.70;20.07;;;;;;;19.94;100.00;95502.72;5070138;28;20219;-75
2023/09/20 09:04:44;;;;;;;39.57;20.50;;;;;;;20.09;100.00;95501.06;5058777;28;20266;-75
2023/09/20 09:07:10;;;;;;;40.47;22.07;;;;;;;20.26;100.00;95501.06;5068246;28;20657;-76
2023/09/20 09:09:36;;;;;;;42.13;21.80;;;;;;;20.37;97.70;95497.47;5050517;28;20225;-76
2023/09/20 09:12:01;;;;;;;40.93;21.63;;;;;;;20.47;98.35;95497.63;5059839;27;20312;-75
2023/09/20 09:14:27;;;;;;;38.30;22.13;;;;;;;20.50;97.66;95491.00;5078654;28;20225;-75
2023/09/20 09:17:02;;;;;;;41.87;21.60;;;;;;;20.49;97.90;95484.09;5045578;28;20835;-75
2023/09/20 09:19:28;;;;;;;36.83;21.10;;;;;;;20.63;98.31;95488.00;5077741;28;20228;-75
2023/09/20 09:21:54;;;;;;;36.33;20.03;;;;;;;20.63;97.14;95490.66;5060731;28;20228;-76
2023/09/20 09:24:20;;;;;;;36.20;19.53;;;;;;;20.58;97.13;95494.06;5059008;28;20251;-74
2023/09/20 09:26:46;;;;;;;39.93;21.47;;;;;;;20.60;97.90;95483.16;5082112;28;20236;-75
2023/09/20 09:29:18;;;;;;;35.87;20.53;;;;;;;20.57;95.96;95491.63;5053584;28;20339;-74
2023/09/20 09:31:50;;;;;;;36.57;19.97;;;;;;;20.73;96.13;95488.09;5044621;28;20233;-75
2023/09/20 09:34:19;;;;;;;35.73;19.87;;;;;;;20.81;95.25;95483.16;5038930;28;20232;-75
2023/09/20 09:36:45;;;;;;;39.73;19.70;;;;;;;20.91;95.80;95481.66;5057338;28;20251;-75
2023/09/20 09:39:14;;;;;;;34.43;19.53;;;;;;;21.10;94.09;95486.41;5070403;28;20228;-75
2023/09/20 09:41:43;;;;;;;37.03;19.10;;;;;;;21.17;95.22;95481.69;5042828;28;20228;-76
2023/09/20 09:44:10;;;;;;;37.53;19.37;;;;;;;21.31;93.61;95482.09;5040654;28;20240;-76
2023/09/20 09:46:38;;;;;;;35.90;19.13;;;;;;;21.33;92.98;95480.78;5049751;28;20686;-76
2023/09/20 09:49:18;;;;;;;35.40;18.53;;;;;;;21.43;95.46;95469.41;5050629;28;20244;-76
2023/09/20 09:51:50;;;;;;;33.67;19.07;;;;;;;21.46;93.30;95471.56;5045387;28;20251;-75
2023/09/20 09:54:16;;;;;;;30.03;17.90;;;;;;;21.47;90.61;95470.50;5058820;28;20253;-76
2023/09/20 09:56:42;;;;;;;31.10;17.20;;;;;;;21.55;90.41;95471.91;5040697;28;20235;-75
2023/09/20 09:59:08;;;;;;;28.37;16.90;;;;;;;21.64;88.47;95465.06;5048900;28;20232;-75
2023/09/20 10:01:40;;;;;;;29.33;17.03;;;;;;;21.63;90.79;95464.25;5054272;28;20244;-75
2023/09/20 10:04:11;;;;;;;29.80;17.40;;;;;;;21.75;91.73;95464.88;5050497;28;20232;-76
2023/09/20 10:06:55;;;;;;;34.77;19.10;;;;;;;21.86;91.01;95466.59;5069565;28;20224;-76
2023/09/20 10:09:25;;;;;;;34.30;18.40;;;;;;;21.86;90.56;95460.44;5073169;28;20722;-76
2023/09/20 10:11:50;;;;;;;30.33;17.60;;;;;;;22.00;89.02;95458.94;5055672;28;20235;-76
2023/09/20 10:14:18;;;;;;;33.00;17.50;;;;;;;21.93;88.75;95455.69;5025672;28;20625;-75
2023/09/20 10:16:44;;;;;;;39.83;17.93;;;;;;;22.02;89.54;95462.16;5050919;28;20240;-76
2023/09/20 10:19:12;;;;;;;40.40;20.13;;;;;;;22.10;92.45;95456.34;5030787;28;20274;-75
2023/09/20 10:21:40;;;;;;;31.57;16.13;;;;;;;22.24;87.91;95460.16;5069153;28;20227;-76
2023/09/20 10:24:07;;;;;;;27.47;15.90;;;;;;;22.41;86.80;95450.09;5037775;28;20242;-76
2023/09/20 10:26:34;;;;;;;27.23;16.27;;;;;;;22.55;89.01;95451.22;5034024;28;20252;-76
2023/09/20 10:29:24;;;;;;;30.27;16.07;;;;;;;22.62;87.38;95441.16;5055009;28;20275;-75
2023/09/20 10:31:52;;;;;;;28.33;15.37;;;;;;;22.75;87.26;95443.34;5066685;28;20293;-76
2023/09/20 10:34:21;;;;;;;26.70;14.82;;;;;;;22.78;83.72;95442.78;5053316;28;20240;-75
2023/09/20 10:36:53;;;;;;;24.57;14.10;;;;;;;22.95;82.40;95439.13;5052674;28;20631;-76
2023/09/20 10:39:18;;;;;;;24.23;13.52;;;;;;;23.14;81.40;95438.34;5034549;28;20626;-75
2023/09/20 10:41:45;;;;;;;27.33;13.32;;;;;;;23.19;82.51;95429.56;5069444;28;20229;-76
2023/09/20 10:44:31;;;;;;;23.30;12.82;;;;;;;23.31;80.41;95422.88;5064170;28;20284;-76
2023/09/20 10:46:58;;;;;;;19.65;11.57;;;;;;;23.43;78.55;95419.97;5052083;28;20343;-77
2023/09/20 10:49:41;;;;;;;18.63;10.88;;;;;;;23.61;77.57;95410.63;5044200;28;20236;-76
2023/09/20 10:52:07;;;;;;;18.52;10.98;;;;;;;23.69;79.74;95410.84;5068643;28;20236;-76
2023/09/20 10:54:36;;;;;;;22.50;10.57;;;;;;;23.82;76.07;95406.84;5073445;28;20307;-76
2023/09/20 10:57:05;;;;;;;22.67;11.97;;;;;;;23.83;75.18;95406.59;5075094;28;20680;-76
2023/09/20 10:59:31;;;;;;;17.25;10.02;;;;;;;23.91;74.31;95400.69;5055119;28;20328;-76
2023/09/20 11:02:08;;;;;;;17.02;10.00;;;;;;;24.04;74.68;95393.97;5067727;28;20252;-76
2023/09/20 11:04:34;;;;;;;13.52;9.15;;;;;;;24.15;73.49;95397.44;5054232;28;20237;-75
2023/09/20 11:07:02;;;;;;;15.70;8.05;;;;;;;24.25;71.22;95390.19;5067529;28;20221;-75
2023/09/20 11:09:31;;;;;;;11.82;7.03;;;;;;;24.29;69.51;95388.56;5026360;28;20268;-76
2023/09/20 11:12:01;;;;;;;11.57;6.60;;;;;;;24.33;71.08;95388.81;5058710;28;20227;-76
2023/09/20 11:14:26;;;;;;;12.88;5.90;;;;;;;24.39;70.03;95382.34;5039330;28;20260;-76
2023/09/20 11:16:52;;;;;;;10.68;5.70;;;;;;;24.44;65.19;95383.16;5047149;28;20257;-75
2023/09/20 11:19:19;;;;;;;16.73;5.93;;;;;;;24.46;67.25;95378.31;5042253;28;20235;-76
2023/09/20 11:21:45;;;;;;;11.95;5.78;;;;;;;24.56;64.67;95375.59;5047000;28;20257;-75
2023/09/20 11:24:15;;;;;;;11.15;5.80;;;;;;;24.56;66.65;95375.59;5045243;28;20220;-75
2023/09/20 11:26:40;;;;;;;14.57;6.35;;;;;;;24.64;71.40;95372.34;5049023;28;20973;-75
2023/09/20 11:29:09;;;;;;;11.65;6.18;;;;;;;24.71;66.81;95364.00;5064904;28;20263;-76
2023/09/20 11:31:35;;;;;;;12.13;6.30;;;;;;;24.65;70.85;95370.44;5052942;28;20297;-77
2023/09/20 11:34:02;;;;;;;15.15;7.40;;;;;;;24.76;67.29;95361.31;5053605;28;20748;-75
2023/09/20 11:36:28;;;;;;;11.57;6.18;;;;;;;24.74;69.48;95361.56;5035394;28;20228;-75
2023/09/20 11:38:53;;;;;;;13.15;5.60;;;;;;;24.96;66.06;95363.09;5030011;28;20250;-76
2023/09/20 11:41:25;;;;;;;11.05;5.13;;;;;;;24.93;62.60;95355.59;5055038;28;20251;-75
2023/09/20 11:43:57;;;;;;;9.60;4.88;;;;;;;25.08;65.17;95358.97;5045636;28;20225;-75
2023/09/20 11:46:25;;;;;;;12.15;4.85;;;;;;;25.09;65.15;95351.72;5079505;28;20237;-75
2023/09/20 11:48:51;;;;;;;11.02;4.95;;;;;;;25.07;64.28;95348.53;5052915;28;20759;-75
2023/09/20 11:51:17;;;;;;;12.43;5.28;;;;;;;25.06;64.84;95346.91;5051040;28;20219;-76
2023/09/20 11:53:45;;;;;;;14.95;4.82;;;;;;;25.11;63.71;95344.22;5066290;28;20244;-75